METAR Data

Data at: 1116 UTC 21 Apr 2021

METAR for:KSFZ (Pawtucket/NC State A, RI, US)
Text:KSFZ 211056Z AUTO VRB06KT 10SM FEW070 09/09 A2983 RMK AO2 SLP105 T00940089 $
Temperature: 9.4°C ( 49°F)
Dewpoint: 8.9°C ( 48°F) [RH = 97%]
Pressure (altimeter):29.83 inches Hg (1010.2 mb) [Sea level pressure: 1010.5 mb]
Winds:variable direction winds at 7 MPH (6 knots; 3.1 m/s)
Visibility:10 or more sm (16+ km)
Ceiling:at least 12,000 feet AGL
Clouds: few clouds at 7000 feet AGL
QC Flag:automated observation with no human augmentation; SOME DATA ABOVE MAY BE INACCURATE!!!"$" is an indication the sensor requires maintenance.